createdAt,value
2019-02-04T00:04:58.606Z,96691.43
2019-02-04T00:07:51.125Z,96694.26
2019-02-04T00:10:21.421Z,96697.22
2019-02-04T00:15:47.210Z,96700.33
2019-02-04T00:18:17.580Z,96708.50
2019-02-04T00:20:51.284Z,96711.32
2019-02-04T00:23:33.996Z,96716.25
2019-02-04T00:26:16.642Z,96724.94
2019-02-04T00:28:47.992Z,96728.19
2019-02-04T00:31:30.652Z,96736.88
2019-02-04T00:34:00.952Z,96738.69
2019-02-04T00:39:27.115Z,96741.31
2019-02-04T00:42:16.444Z,96743.77
2019-02-04T00:50:32.156Z,96758.25
2019-02-04T00:53:43.809Z,96760.72
2019-02-04T00:56:14.870Z,96761.22
2019-02-04T00:58:45.507Z,96770.89
2019-02-04T01:01:46.488Z,96771.88
2019-02-04T01:04:17.277Z,96776.13
2019-02-04T01:06:47.597Z,96779.42
2019-02-04T01:09:29.363Z,96786.97
2019-02-04T01:12:00.012Z,96791.20
2019-02-04T01:20:52.852Z,96808.27
2019-02-04T01:23:23.281Z,96814.86
2019-02-04T01:25:53.550Z,96826.97
2019-02-04T01:28:35.707Z,96830.58
2019-02-04T01:31:19.989Z,96833.40
2019-02-04T01:33:52.772Z,96840.46
2019-02-04T01:36:23.344Z,96838.98
2019-02-04T01:39:33.449Z,96844.41
2019-02-04T01:42:06.505Z,96839.97
2019-02-04T01:45:05.691Z,96843.61
2019-02-04T01:47:55.396Z,96844.77
2019-02-04T01:53:22.869Z,96847.88
2019-02-04T01:56:12.302Z,96845.42
2019-02-04T01:58:42.901Z,96848.21
2019-02-04T02:06:45.263Z,96850.83
2019-02-04T02:09:34.727Z,96858.34
2019-02-04T02:14:55.967Z,96866.09
2019-02-04T02:17:39.765Z,96868.72
2019-02-04T02:20:31.150Z,96867.41
2019-02-04T02:23:01.305Z,96870.69
2019-02-04T02:25:45.458Z,96873.14
2019-02-04T02:28:28.232Z,96877.41
2019-02-04T02:30:58.891Z,96877.55
2019-02-04T02:33:29.152Z,96875.41
2019-02-04T02:36:18.754Z,96874.13
2019-02-04T02:38:49.049Z,96872.81
2019-02-04T02:41:20.390Z,96873.14
2019-02-04T02:44:03.420Z,96872.69
2019-02-04T02:46:45.978Z,96870.55
2019-02-04T02:49:16.226Z,96868.09
2019-02-04T02:51:46.846Z,96868.42
2019-02-04T02:54:28.351Z,96870.88
2019-02-04T02:57:10.676Z,96876.63
2019-02-04T03:00:04.025Z,96882.86
2019-02-04T03:02:41.623Z,96878.23
2019-02-04T03:05:31.197Z,96887.45
2019-02-04T03:08:01.495Z,96890.56
2019-02-04T03:10:42.367Z,96888.59
2019-02-04T03:13:35.136Z,96893.02
2019-02-04T03:16:12.807Z,96899.75
2019-02-04T03:18:43.502Z,96895.16
2019-02-04T03:21:25.872Z,96907.78
2019-02-04T03:24:08.052Z,96905.49
2019-02-04T03:26:38.769Z,96910.08
2019-02-04T03:29:09.521Z,96922.05
2019-02-04T03:31:51.950Z,96923.86
2019-02-04T03:34:36.541Z,96920.25
2019-02-04T03:40:09.183Z,96939.45
2019-02-04T03:42:51.438Z,96941.91
2019-02-04T03:45:21.809Z,96950.44
2019-02-04T03:48:04.289Z,96952.90
2019-02-04T03:50:43.274Z,96959.95
2019-02-04T03:53:13.629Z,96959.63
2019-02-04T03:56:03.114Z,96966.84
2019-02-04T03:58:40.706Z,96971.44
2019-02-04T04:01:11.090Z,96979.77
2019-02-04T04:03:41.710Z,96989.78
2019-02-04T04:06:50.252Z,96996.83
2019-02-04T04:09:20.910Z,97004.87
2019-02-04T04:11:51.182Z,97001.76
2019-02-04T04:14:33.678Z,97004.22
2019-02-04T04:17:15.236Z,97004.05
2019-02-04T04:19:45.487Z,97000.47
2019-02-04T04:22:15.784Z,97015.40
2019-02-04T04:25:08.632Z,97016.03
2019-02-04T04:28:18.414Z,97021.27
2019-02-04T04:30:48.730Z,97026.52
2019-02-04T04:33:31.636Z,97027.70
2019-02-04T04:36:13.962Z,97031.30
2019-02-04T04:38:44.760Z,97027.70
2019-02-04T04:41:15.100Z,97030.95
2019-02-04T04:43:57.606Z,97034.59
2019-02-04T04:46:40.986Z,97039.02
2019-02-04T04:49:11.568Z,97038.69
2019-02-04T04:51:42.162Z,97038.04
2019-02-04T04:54:24.230Z,97052.47
2019-02-04T04:57:06.631Z,97052.13
2019-02-04T04:59:36.910Z,97045.58
2019-02-04T05:05:30.618Z,97049.84
2019-02-04T05:08:00.938Z,97052.63
2019-02-04T05:10:31.668Z,97065.25
2019-02-04T05:13:08.899Z,97067.72
2019-02-04T05:15:39.149Z,97070.34
2019-02-04T05:18:09.693Z,97070.02
2019-02-04T05:20:51.102Z,97066.23
2019-02-04T05:23:31.675Z,97071.64
2019-02-04T05:26:01.902Z,97065.42
2019-02-04T05:28:51.579Z,97066.39
2019-02-04T05:31:33.539Z,97064.43
2019-02-04T05:34:05.813Z,97065.39
2019-02-04T05:36:55.504Z,97061.95
2019-02-04T05:42:28.899Z,97069.98
2019-02-04T05:45:11.772Z,97075.73
2019-02-04T05:47:42.112Z,97076.53
2019-02-04T05:53:38.284Z,97079.00
2019-02-04T06:01:39.164Z,97072.91
2019-02-04T06:04:12.577Z,97076.48
2019-02-04T06:07:03.597Z,97077.78
2019-02-04T06:10:05.769Z,97084.97
2019-02-04T06:12:38.369Z,97086.73
2019-02-04T06:21:56.901Z,97096.16
2019-02-04T06:24:30.295Z,97089.39
2019-02-04T06:27:12.364Z,97095.11
2019-02-04T06:29:44.829Z,97101.93
2019-02-04T06:32:38.418Z,97100.58
2019-02-04T06:35:28.308Z,97104.21
2019-02-04T06:44:12.051Z,97117.70
2019-02-04T06:49:24.610Z,97120.08
2019-02-04T06:52:15.725Z,97127.87
2019-02-04T06:55:09.671Z,97126.03
2019-02-04T06:57:39.938Z,97120.69
2019-02-04T07:00:29.601Z,97131.44
2019-02-04T07:03:07.323Z,97127.13
2019-02-04T07:09:40.716Z,97146.80
2019-02-04T07:12:11.243Z,97145.80
2019-02-04T07:20:53.129Z,97152.19
2019-02-04T07:23:35.294Z,97150.26
2019-02-04T07:26:05.573Z,97155.37
2019-02-04T07:28:37.439Z,97156.67
2019-02-04T07:31:08.000Z,97159.95
2019-02-04T07:33:39.926Z,97163.55
2019-02-04T07:36:31.648Z,97172.62
2019-02-04T07:42:03.362Z,97176.98
2019-02-04T07:44:33.609Z,97172.28
2019-02-04T07:47:23.036Z,97178.60
2019-02-04T07:50:04.886Z,97173.78
2019-02-04T07:52:35.493Z,97174.63
2019-02-04T07:55:17.391Z,97177.65
2019-02-04T07:57:47.785Z,97173.36
2019-02-04T08:04:10.346Z,97167.86
2019-02-04T08:09:10.239Z,97166.09
2019-02-04T08:11:40.597Z,97166.58
2019-02-04T08:14:23.362Z,97166.37
2019-02-04T08:17:09.236Z,97170.84
2019-02-04T08:19:46.769Z,97163.52
2019-02-04T08:22:20.981Z,97171.77
2019-02-04T08:25:11.102Z,97168.56
2019-02-04T08:28:02.824Z,97171.28
2019-02-04T08:30:37.750Z,97177.55
2019-02-04T08:33:31.286Z,97179.44
2019-02-04T08:36:01.649Z,97176.90
2019-02-04T08:38:32.689Z,97177.42
2019-02-04T08:41:23.621Z,97181.06
2019-02-04T08:43:53.981Z,97183.97
2019-02-04T08:46:26.140Z,97175.89
2019-02-04T08:49:08.521Z,97182.02
2019-02-04T08:51:39.217Z,97181.59
2019-02-04T08:54:09.500Z,97176.91
2019-02-04T08:56:51.639Z,97179.19
2019-02-04T08:59:33.984Z,97180.72
2019-02-04T09:05:08.005Z,97176.69
2019-02-04T09:07:41.956Z,97178.34
2019-02-04T09:10:32.440Z,97181.78
2019-02-04T09:13:03.145Z,97187.84
2019-02-04T09:15:33.440Z,97189.66
2019-02-04T09:18:04.097Z,97194.38
2019-02-04T09:20:36.832Z,97195.16
2019-02-04T09:23:07.526Z,97198.75
2019-02-04T09:25:57.009Z,97204.41
2019-02-04T09:31:29.495Z,97193.55
2019-02-04T09:34:00.079Z,97186.56
2019-02-04T09:40:38.410Z,97180.16
2019-02-04T09:49:59.964Z,97180.84
2019-02-04T09:55:33.193Z,97181.25
2019-02-04T09:58:17.068Z,97180.86
2019-02-04T10:03:33.134Z,97187.59
2019-02-04T10:06:04.079Z,97190.19
2019-02-04T10:08:45.868Z,97193.86
2019-02-04T10:11:31.121Z,97191.21
2019-02-04T10:14:02.328Z,97197.00
2019-02-04T10:16:33.115Z,97194.63
2019-02-04T10:19:15.427Z,97193.38
2019-02-04T10:21:58.030Z,97196.19
2019-02-04T10:24:30.778Z,97187.02
2019-02-04T10:27:01.175Z,97189.32
2019-02-04T10:32:39.708Z,97206.29
2019-02-04T10:35:29.944Z,97208.14
2019-02-04T10:38:08.174Z,97213.17
2019-02-04T10:40:38.948Z,97202.13
2019-02-04T10:43:09.101Z,97207.14
2019-02-04T10:45:43.417Z,97206.01
2019-02-04T10:48:16.856Z,97210.06
2019-02-04T10:50:47.403Z,97205.41
2019-02-04T10:56:22.062Z,97192.72
2019-02-04T10:58:52.434Z,97196.45
2019-02-04T11:02:01.329Z,97193.43
2019-02-04T11:04:33.467Z,97187.38
2019-02-04T11:07:03.807Z,97196.85
2019-02-04T11:09:45.480Z,97187.83
2019-02-04T11:12:35.869Z,97192.91
2019-02-04T11:15:07.710Z,97182.42
2019-02-04T11:20:58.035Z,97171.16
2019-02-04T11:26:15.075Z,97160.91
2019-02-04T11:28:57.584Z,97161.33
2019-02-04T11:34:29.443Z,97146.62
2019-02-04T11:37:21.574Z,97145.79
2019-02-04T11:39:51.912Z,97132.72
2019-02-04T11:42:22.255Z,97135.37
2019-02-04T11:45:06.688Z,97138.34
2019-02-04T11:50:48.636Z,97129.90
2019-02-04T11:53:53.771Z,97132.07
2019-02-04T11:56:43.365Z,97131.88
2019-02-04T11:59:34.383Z,97137.66
2019-02-04T12:02:17.419Z,97132.11
2019-02-04T12:04:52.858Z,97135.96
2019-02-04T12:07:25.191Z,97130.95
2019-02-04T12:10:07.929Z,97136.84
2019-02-04T12:12:38.177Z,97135.96
2019-02-04T12:15:26.014Z,97135.58
2019-02-04T12:20:58.514Z,97132.21
2019-02-04T12:23:42.066Z,97137.25
2019-02-04T12:26:24.044Z,97141.72
2019-02-04T12:32:36.088Z,97134.61
2019-02-04T12:38:09.429Z,97134.89
2019-02-04T12:40:40.193Z,97134.43
2019-02-04T12:43:29.937Z,97131.93
2019-02-04T12:46:00.411Z,97132.59
2019-02-04T12:48:33.603Z,97130.98
2019-02-04T12:51:15.227Z,97128.39
2019-02-04T12:53:57.447Z,97137.49
2019-02-04T12:56:31.726Z,97131.72
2019-02-04T13:02:23.933Z,97129.11
2019-02-04T13:04:54.201Z,97125.02
2019-02-04T13:07:28.971Z,97122.23
2019-02-04T13:10:18.833Z,97124.47
2019-02-04T13:13:12.504Z,97118.02
2019-02-04T13:15:27.645Z,97119.95
2019-02-04T13:18:28.334Z,97117.88
2019-02-04T13:21:00.905Z,97119.13
2019-02-04T13:23:34.040Z,97116.84
2019-02-04T13:26:44.804Z,97117.31
2019-02-04T13:29:18.581Z,97108.39
2019-02-04T13:35:10.907Z,97114.84
2019-02-04T13:37:36.354Z,97115.09
2019-02-04T13:40:20.132Z,97114.77
2019-02-04T13:42:52.036Z,97099.72
2019-02-04T13:45:22.400Z,97091.70
2019-02-04T13:48:08.567Z,97097.86
2019-02-04T13:50:47.827Z,97096.68
2019-02-04T13:53:18.078Z,97091.63
2019-02-04T13:56:01.564Z,97091.59
2019-02-04T13:58:34.342Z,97085.86
2019-02-04T14:01:23.775Z,97089.93
2019-02-04T14:06:37.290Z,97081.52
2019-02-04T14:09:29.222Z,97078.83
2019-02-04T14:22:09.378Z,97066.40
2019-02-04T14:24:55.235Z,97063.62
2019-02-04T14:27:51.883Z,97059.55
2019-02-04T14:33:23.808Z,97063.27
2019-02-04T14:36:06.313Z,97055.62
2019-02-04T14:38:37.201Z,97055.77
2019-02-04T14:44:36.017Z,97056.45
2019-02-04T14:47:16.972Z,97049.24
2019-02-04T14:50:19.074Z,97056.12
2019-02-04T14:53:27.903Z,97056.45
2019-02-04T14:56:38.380Z,97056.36
2019-02-04T15:00:03.973Z,97057.00
2019-02-04T15:03:19.442Z,97054.72
2019-02-04T15:06:25.469Z,97062.88
2019-02-04T15:09:41.271Z,97060.98
2019-02-04T15:13:09.574Z,97057.34
2019-02-04T15:16:08.166Z,97055.27
2019-02-04T15:19:11.941Z,97057.50
2019-02-04T15:22:20.487Z,97057.41
2019-02-04T15:25:50.552Z,97064.88
2019-02-04T15:29:06.497Z,97070.84
2019-02-04T15:32:18.063Z,97062.31
2019-02-04T15:35:28.161Z,97065.00
2019-02-04T15:38:36.631Z,97071.12
2019-02-04T15:44:54.663Z,97067.93
2019-02-04T15:47:46.868Z,97062.67
2019-02-04T15:50:58.186Z,97055.77
2019-02-04T15:56:36.792Z,97056.18
2019-02-04T15:59:07.474Z,97060.33
2019-02-04T16:01:40.899Z,97062.17
2019-02-04T16:04:35.958Z,97065.29
2019-02-04T16:07:10.947Z,97061.18
2019-02-04T16:09:51.789Z,97062.00
2019-02-04T16:15:43.127Z,97061.05
2019-02-04T16:21:16.218Z,97066.00
2019-02-04T16:23:58.386Z,97064.38
2019-02-04T16:26:57.700Z,97071.60
2019-02-04T16:29:56.008Z,97071.11
2019-02-04T16:32:40.453Z,97073.75
2019-02-04T16:35:14.616Z,97069.48
2019-02-04T16:38:16.362Z,97071.64
2019-02-04T16:40:52.701Z,97074.75
2019-02-04T16:43:23.098Z,97076.91
2019-02-04T16:46:16.848Z,97075.41
2019-02-04T16:54:37.105Z,97072.30
2019-02-04T16:57:29.664Z,97067.22
2019-02-04T17:02:54.684Z,97075.42
2019-02-04T17:05:45.941Z,97067.72
2019-02-04T17:08:23.433Z,97063.95
2019-02-04T17:10:53.905Z,97054.77
2019-02-04T17:13:36.565Z,97060.81
2019-02-04T17:22:22.176Z,97050.82
2019-02-04T17:25:04.689Z,97043.77
2019-02-04T17:27:38.301Z,97049.00
2019-02-04T17:30:15.724Z,97048.04
2019-02-04T17:33:27.221Z,97045.72
2019-02-04T17:38:44.558Z,97031.62
2019-02-04T17:41:38.855Z,97031.48
2019-02-04T17:50:16.613Z,97016.53
2019-02-04T17:52:47.043Z,97018.19
2019-02-04T17:55:40.716Z,97017.36
2019-02-04T18:11:02.054Z,97042.43
2019-02-04T18:23:13.409Z,97042.62
2019-02-04T18:26:22.263Z,97035.69
2019-02-04T18:29:18.310Z,97041.60
2019-02-04T18:32:35.440Z,97044.06
2019-02-04T18:39:26.419Z,97035.87
2019-02-04T18:45:17.342Z,97036.02
2019-02-04T18:47:47.738Z,97036.68
2019-02-04T18:50:43.737Z,97034.86
2019-02-04T18:54:04.408Z,97037.01
2019-02-04T18:56:34.206Z,97032.25
2019-02-04T18:59:04.693Z,97037.34
2019-02-04T19:01:54.479Z,97035.20
2019-02-04T19:04:38.169Z,97036.67
2019-02-04T19:07:24.137Z,97033.72
2019-02-04T19:10:44.949Z,97024.52
2019-02-04T19:13:11.773Z,97031.75
2019-02-04T19:16:08.530Z,97035.16
2019-02-04T19:18:52.029Z,97029.09
2019-02-04T19:24:43.847Z,97026.80
2019-02-04T19:30:44.807Z,97032.27
2019-02-04T19:33:20.355Z,97025.82
2019-02-04T19:36:10.102Z,97026.86
2019-02-04T19:38:47.382Z,97025.05
2019-02-04T19:44:39.039Z,97021.22
2019-02-04T19:50:14.500Z,97019.70
2019-02-04T19:53:15.111Z,97007.80
2019-02-04T19:55:57.087Z,97007.59
2019-02-04T20:01:29.959Z,97009.27
2019-02-04T20:04:03.583Z,97008.64
2019-02-04T20:06:34.263Z,97009.34
2019-02-04T20:09:19.800Z,97016.59
2019-02-04T20:12:11.304Z,97006.76
2019-02-04T20:15:01.035Z,97010.31
2019-02-04T20:17:33.010Z,97008.03
2019-02-04T20:20:14.146Z,97006.73
2019-02-04T20:23:06.637Z,97003.09
2019-02-04T20:25:37.146Z,96995.95
2019-02-04T20:32:18.316Z,97002.70
2019-02-04T20:34:55.493Z,97000.58
2019-02-04T20:37:21.372Z,97005.02
2019-02-04T20:40:03.664Z,97004.38
2019-02-04T20:42:45.935Z,97000.94
2019-02-04T20:45:27.909Z,97006.51
2019-02-04T20:51:41.538Z,97000.48
2019-02-04T20:54:19.420Z,97003.25
2019-02-04T20:56:50.005Z,97002.61
2019-02-04T21:11:03.540Z,97010.47
2019-02-04T21:16:55.674Z,97015.06
2019-02-04T21:20:04.426Z,97015.55
2019-02-04T21:23:25.079Z,97022.25
2019-02-04T21:25:32.388Z,97017.02
2019-02-04T21:28:14.494Z,97015.58
2019-02-04T21:30:48.232Z,97022.13
2019-02-04T21:36:27.328Z,97023.62
2019-02-04T21:38:57.703Z,97024.59
2019-02-04T21:41:49.470Z,97021.48
2019-02-04T21:44:41.809Z,97033.12
2019-02-04T21:47:12.071Z,97025.41
2019-02-04T21:50:03.175Z,97032.32
2019-02-04T21:52:33.729Z,97035.61
2019-02-04T21:55:23.040Z,97033.63
2019-02-04T21:58:07.010Z,97032.48
2019-02-04T22:00:37.996Z,97022.33
2019-02-04T22:03:08.846Z,97020.05
2019-02-04T22:06:00.506Z,97017.75
2019-02-04T22:08:30.916Z,97014.00
2019-02-04T22:11:03.722Z,97015.13
2019-02-04T22:13:46.061Z,97018.39
2019-02-04T22:16:17.221Z,97014.80
2019-02-04T22:18:47.524Z,97015.28
2019-02-04T22:21:17.841Z,97011.52
2019-02-04T22:24:03.260Z,97009.20
2019-02-04T22:26:52.953Z,97007.56
2019-02-04T22:29:23.464Z,97005.61
2019-02-04T22:32:05.418Z,97002.65
2019-02-04T22:34:46.865Z,96996.77
2019-02-04T22:43:14.160Z,96993.84
2019-02-04T22:45:44.416Z,96997.92
2019-02-04T22:48:16.335Z,96998.75
2019-02-04T22:51:05.040Z,97004.97
2019-02-04T22:53:55.985Z,97012.67
2019-02-04T22:56:31.879Z,97012.67
2019-02-04T22:59:21.312Z,97011.69
2019-02-04T23:01:54.058Z,97008.09
2019-02-04T23:04:45.103Z,96999.07
2019-02-04T23:07:26.932Z,97010.86
2019-02-04T23:10:12.811Z,97008.89
2019-02-04T23:13:03.865Z,97011.69
2019-02-04T23:15:34.224Z,97017.91
2019-02-04T23:18:05.238Z,97022.15
2019-02-04T23:20:37.140Z,97024.92
2019-02-04T23:23:19.525Z,97029.67
2019-02-04T23:26:02.743Z,97021.33
2019-02-04T23:28:33.284Z,97024.77
2019-02-04T23:34:39.425Z,97020.84
2019-02-04T23:37:12.415Z,97017.73
2019-02-04T23:40:02.109Z,97017.40
2019-02-04T23:42:34.366Z,97016.75
2019-02-04T23:45:05.379Z,97013.31
2019-02-04T23:47:55.095Z,97005.61
2019-02-04T23:50:26.934Z,96997.77
2019-02-04T23:52:57.164Z,97004.31
2019-02-04T23:55:29.063Z,97004.63
2019-02-04T23:57:59.431Z,97012.16
